Time;durP1;ratioP1;P1;durP2;ratioP2;P2;SDS_P1;SDS_P2;PMS_P1;PMS_P2;Temp;Humidity;BMP_temperature;BMP_pressure;BME280_temperature;BME280_humidity;BME280_pressure;Samples;Min_cycle;Max_cycle;Signal;HPM_P1;HPM_P2
2022/04/22 00:01:22;;;;;;;6.35;3.83;;;22.70;40.70;;;;;;4985874;28;20133;-65
2022/04/22 00:03:47;;;;;;;6.68;4.30;;;22.70;40.70;;;;;;4988683;28;21475;-64
2022/04/22 00:06:13;;;;;;;6.40;4.00;;;22.70;40.70;;;;;;4986021;28;21002;-64
2022/04/22 00:08:39;;;;;;;6.75;3.92;;;22.70;40.70;;;;;;4990490;28;20045;-63
2022/04/22 00:13:50;;;;;;;6.88;4.10;;;22.70;40.70;;;;;;4990924;28;20133;-65
2022/04/22 00:16:17;;;;;;;7.70;3.85;;;22.70;40.70;;;;;;4988684;28;20030;-64
2022/04/22 00:18:44;;;;;;;5.60;3.70;;;22.70;40.70;;;;;;4991769;28;20033;-62
2022/04/22 00:21:10;;;;;;;6.00;3.60;;;22.70;40.60;;;;;;4992006;28;20482;-65
2022/04/22 00:23:36;;;;;;;5.88;3.45;;;22.70;40.60;;;;;;4993158;28;20032;-66
2022/04/22 00:26:01;;;;;;;5.22;3.35;;;22.70;40.60;;;;;;4994565;28;20184;-63
2022/04/22 00:28:27;;;;;;;5.07;3.30;;;22.70;40.80;;;;;;4998867;28;20053;-64
2022/04/22 00:30:53;;;;;;;4.97;3.15;;;22.70;40.80;;;;;;4990636;28;20506;-65
2022/04/22 00:33:18;;;;;;;5.25;3.25;;;22.70;40.80;;;;;;4994668;28;20038;-65
2022/04/22 00:35:44;;;;;;;5.53;3.10;;;22.70;41.20;;;;;;4993537;28;20030;-64
2022/04/22 00:38:10;;;;;;;5.85;3.60;;;22.70;40.70;;;;;;4991387;28;20037;-66
2022/04/22 00:40:36;;;;;;;6.15;3.13;;;22.70;40.60;;;;;;4992055;28;20088;-64
2022/04/22 00:43:16;;;;;;;4.97;3.00;;;22.70;40.60;;;;;;4994065;28;20030;-65
2022/04/22 00:45:42;;;;;;;4.65;3.08;;;22.70;40.60;;;;;;4987408;28;20668;-66
2022/04/22 00:48:08;;;;;;;4.80;2.80;;;22.70;40.60;;;;;;4993122;28;20509;-64
2022/04/22 00:50:34;;;;;;;4.82;3.20;;;22.70;40.60;;;;;;4994206;28;20057;-65
2022/04/22 00:53:00;;;;;;;5.00;3.10;;;22.70;40.60;;;;;;4993525;28;20042;-65
2022/04/22 00:55:27;;;;;;;5.55;3.10;;;22.70;40.60;;;;;;4992267;28;20771;-66
2022/04/22 00:57:54;;;;;;;5.10;3.03;;;22.70;40.60;;;;;;4993996;28;20068;-63
2022/04/22 01:00:20;;;;;;;5.22;3.00;;;22.70;40.60;;;;;;4989577;28;20592;-64
2022/04/22 01:02:45;;;;;;;6.05;3.20;;;22.70;40.70;;;;;;4991912;28;20381;-63
2022/04/22 01:10:39;;;;;;;4.90;2.85;;;22.60;40.60;;;;;;4990142;28;20060;-66
2022/04/22 01:13:07;;;;;;;4.63;3.15;;;22.70;40.70;;;;;;4991077;28;20034;-65
2022/04/22 01:15:35;;;;;;;5.03;3.00;;;22.60;40.70;;;;;;4991171;28;20041;-62
2022/04/22 01:18:01;;;;;;;4.45;2.95;;;22.60;40.60;;;;;;4989458;28;20061;-64
2022/04/22 01:20:27;;;;;;;4.28;2.58;;;22.60;40.70;;;;;;4989384;28;20120;-65
2022/04/22 01:22:52;;;;;;;4.68;2.70;;;22.60;40.70;;;;;;4994331;28;20030;-66
2022/04/22 01:25:18;;;;;;;4.32;3.00;;;22.60;40.70;;;;;;4996001;28;20565;-63
2022/04/22 01:27:47;;;;;;;4.82;2.90;;;22.60;40.80;;;;;;4995934;28;20367;-66
2022/04/22 01:30:12;;;;;;;4.43;3.00;;;22.60;40.80;;;;;;4991863;28;20431;-66
2022/04/22 01:32:38;;;;;;;4.72;2.70;;;22.60;40.80;;;;;;4995973;28;20054;-63
2022/04/22 01:35:04;;;;;;;6.32;2.90;;;22.60;40.90;;;;;;4994529;28;20037;-65
2022/04/22 01:37:32;;;;;;;5.55;3.00;;;22.60;40.80;;;;;;4994666;28;20104;-64
2022/04/22 01:39:57;;;;;;;4.20;2.58;;;22.60;40.90;;;;;;4989015;28;20496;-66
2022/04/22 01:42:23;;;;;;;4.00;2.45;;;22.60;40.90;;;;;;4994215;28;20246;-63
2022/04/22 01:44:49;;;;;;;6.03;2.90;;;22.60;41.00;;;;;;4993310;28;20034;-64
2022/04/22 01:47:16;;;;;;;4.53;2.80;;;22.60;40.90;;;;;;4994696;28;20898;-64
2022/04/22 01:49:41;;;;;;;4.68;2.72;;;22.50;40.80;;;;;;4990082;28;20448;-63
2022/04/22 01:52:08;;;;;;;4.93;2.55;;;22.50;40.80;;;;;;4992189;28;20049;-63
2022/04/22 01:54:33;;;;;;;4.88;2.88;;;22.50;40.90;;;;;;4995030;28;20037;-63
2022/04/22 01:56:59;;;;;;;3.97;2.42;;;22.50;40.90;;;;;;4989426;28;20025;-64
2022/04/22 01:59:25;;;;;;;4.32;2.65;;;22.50;40.90;;;;;;4987923;28;20528;-63
2022/04/22 02:01:50;;;;;;;4.25;2.60;;;22.50;40.90;;;;;;4988021;28;20128;-62
2022/04/22 02:04:16;;;;;;;4.03;2.53;;;22.50;40.90;;;;;;4992791;28;20025;-64
2022/04/22 02:06:41;;;;;;;4.75;2.72;;;22.50;40.90;;;;;;4995220;28;20030;-63
2022/04/22 02:09:07;;;;;;;4.60;2.78;;;22.50;40.90;;;;;;4993071;28;20029;-64
2022/04/22 02:11:33;;;;;;;3.72;2.28;;;22.40;40.80;;;;;;4993793;28;20037;-65
2022/04/22 02:13:58;;;;;;;4.28;2.72;;;22.40;40.80;;;;;;4994839;28;20033;-64
2022/04/22 02:16:24;;;;;;;3.78;2.30;;;22.40;40.80;;;;;;4987833;28;20034;-63
2022/04/22 02:18:49;;;;;;;4.95;2.80;;;22.40;40.80;;;;;;4993959;28;20045;-66
2022/04/22 02:21:15;;;;;;;4.57;2.75;;;22.40;40.80;;;;;;4990943;28;20040;-64
2022/04/22 02:23:41;;;;;;;4.00;2.50;;;22.40;40.80;;;;;;4994973;28;20030;-62
2022/04/22 02:26:07;;;;;;;4.13;2.63;;;22.40;40.80;;;;;;4989621;28;20135;-62
2022/04/22 02:28:33;;;;;;;3.67;2.28;;;22.40;40.80;;;;;;4993165;28;20034;-64
2022/04/22 02:31:06;;;;;;;4.35;2.40;;;22.40;40.70;;;;;;4988111;28;20207;-62
2022/04/22 02:33:36;;;;;;;4.25;2.83;;;22.30;40.70;;;;;;4992995;28;20558;-65
2022/04/22 02:36:03;;;;;;;3.85;2.42;;;22.40;40.70;;;;;;4993062;28;20034;-64
2022/04/22 02:38:30;;;;;;;3.75;2.30;;;22.40;40.70;;;;;;4994714;28;20077;-64
2022/04/22 02:46:27;;;;;;;3.45;1.92;;;22.30;40.60;;;;;;4990433;28;20045;-65
2022/04/22 02:48:59;;;;;;;3.92;2.30;;;22.30;40.60;;;;;;4993203;28;21388;-64
2022/04/22 02:51:26;;;;;;;3.30;2.13;;;22.30;40.60;;;;;;4996849;28;20029;-65
2022/04/22 02:53:52;;;;;;;4.45;2.42;;;22.30;40.60;;;;;;5000369;28;20048;-64
2022/04/22 02:56:19;;;;;;;3.28;2.20;;;22.30;40.60;;;;;;4996652;28;20030;-62
2022/04/22 02:58:45;;;;;;;3.28;2.03;;;22.30;40.60;;;;;;4999036;28;20038;-62
2022/04/22 03:01:11;;;;;;;3.85;2.38;;;22.30;40.60;;;;;;4991018;28;20069;-64
2022/04/22 03:03:36;;;;;;;3.80;2.28;;;22.30;40.60;;;;;;4998932;28;20064;-62
2022/04/22 03:06:02;;;;;;;3.65;2.20;;;22.20;40.50;;;;;;5010474;28;20050;-63
2022/04/22 03:08:28;;;;;;;3.47;2.30;;;22.20;40.60;;;;;;4999247;28;20026;-65
2022/04/22 03:10:54;;;;;;;3.10;1.95;;;22.20;40.60;;;;;;4994974;28;20030;-65
2022/04/22 03:13:19;;;;;;;3.65;2.30;;;22.20;40.60;;;;;;4994681;28;20022;-64
2022/04/22 03:15:45;;;;;;;4.05;2.33;;;22.20;40.50;;;;;;4994436;28;20028;-64
2022/04/22 03:18:11;;;;;;;4.30;2.58;;;22.20;40.50;;;;;;4992997;28;20084;-63
2022/04/22 03:20:37;;;;;;;3.67;2.25;;;22.10;40.50;;;;;;4996145;28;20113;-62
2022/04/22 03:23:03;;;;;;;3.78;2.22;;;22.10;40.50;;;;;;4997553;28;20513;-63
2022/04/22 03:25:29;;;;;;;3.70;2.28;;;22.10;40.50;;;;;;4996929;28;20096;-64
2022/04/22 03:27:55;;;;;;;4.35;2.10;;;22.10;40.50;;;;;;4996333;28;20076;-64
2022/04/22 03:30:21;;;;;;;3.40;2.17;;;22.10;40.50;;;;;;4994936;28;20038;-64
2022/04/22 03:32:46;;;;;;;3.85;1.85;;;22.10;40.50;;;;;;4997439;28;20037;-64
2022/04/22 03:35:12;;;;;;;3.35;2.20;;;22.10;40.50;;;;;;4996078;28;21826;-65
2022/04/22 03:37:38;;;;;;;3.65;2.10;;;22.10;40.50;;;;;;4997618;28;20041;-64
2022/04/22 03:40:04;;;;;;;3.50;2.38;;;22.10;40.50;;;;;;4997304;28;20041;-62
2022/04/22 03:42:29;;;;;;;3.30;2.03;;;22.10;40.50;;;;;;4997436;28;20407;-62
2022/04/22 03:44:56;;;;;;;3.78;2.10;;;22.10;40.50;;;;;;4993308;28;20037;-64
2022/04/22 03:47:22;;;;;;;4.10;2.08;;;22.10;40.50;;;;;;4995192;28;20418;-65
2022/04/22 03:49:48;;;;;;;3.40;2.13;;;22.10;40.40;;;;;;4995798;28;20038;-65
2022/04/22 03:52:14;;;;;;;2.55;1.90;;;22.00;40.40;;;;;;4993843;28;20054;-63
2022/04/22 03:54:39;;;;;;;3.40;2.03;;;22.00;40.40;;;;;;4997337;28;20596;-64
2022/04/22 03:59:49;;;;;;;2.97;1.92;;;22.00;40.40;;;;;;4994701;28;20040;-62
2022/04/22 04:02:15;;;;;;;2.92;2.05;;;22.00;40.50;;;;;;4993600;28;20649;-65
2022/04/22 04:04:41;;;;;;;3.22;2.00;;;22.00;40.50;;;;;;4996165;28;20030;-66
2022/04/22 04:07:06;;;;;;;2.78;1.77;;;22.00;40.40;;;;;;4994310;28;20132;-63
2022/04/22 04:18:04;;;;;;;3.00;1.88;;;21.90;40.40;;;;;;4988984;28;20127;-62
2022/04/22 04:23:14;;;;;;;3.20;2.17;;;21.90;40.40;;;;;;4996400;28;20040;-63
2022/04/22 04:25:40;;;;;;;3.35;2.08;;;21.90;40.40;;;;;;4995898;28;20030;-64
2022/04/22 04:28:10;;;;;;;3.10;1.95;;;21.90;40.30;;;;;;4996419;28;20152;-63
2022/04/22 04:30:40;;;;;;;3.13;2.10;;;21.90;40.40;;;;;;4991109;28;20443;-64
2022/04/22 04:33:07;;;;;;;2.70;1.55;;;21.90;40.40;;;;;;4996293;28;20054;-64
2022/04/22 04:35:34;;;;;;;2.60;1.80;;;21.90;40.30;;;;;;4995111;28;20033;-64
2022/04/22 04:38:00;;;;;;;3.35;1.88;;;21.90;40.30;;;;;;5027626;28;20026;-65
2022/04/22 04:40:26;;;;;;;3.38;1.83;;;21.90;40.30;;;;;;4993691;28;20339;-65
2022/04/22 04:42:54;;;;;;;2.92;1.85;;;21.90;40.40;;;;;;4997528;28;20022;-62
2022/04/22 04:45:20;;;;;;;2.95;1.80;;;21.90;40.40;;;;;;4989378;28;20034;-65
2022/04/22 04:47:46;;;;;;;2.95;1.70;;;21.90;40.30;;;;;;4995226;28;20040;-64
2022/04/22 04:50:12;;;;;;;2.47;1.65;;;21.90;40.30;;;;;;4994053;28;20025;-61
2022/04/22 04:52:39;;;;;;;2.67;1.55;;;21.90;40.30;;;;;;4997042;28;20113;-65
2022/04/22 04:55:09;;;;;;;3.05;1.85;;;21.90;40.30;;;;;;4995004;28;20136;-65
2022/04/22 04:57:35;;;;;;;2.45;1.60;;;21.90;40.30;;;;;;4997793;28;20080;-63
2022/04/22 05:00:03;;;;;;;2.65;1.60;;;21.90;40.30;;;;;;4991853;28;20116;-62
2022/04/22 05:02:28;;;;;;;2.83;1.60;;;21.80;40.30;;;;;;4994726;28;20088;-64
2022/04/22 05:04:54;;;;;;;3.35;1.67;;;21.80;40.30;;;;;;4994196;28;20387;-65
2022/04/22 05:07:20;;;;;;;2.72;1.70;;;21.80;40.30;;;;;;4995738;28;20124;-65
2022/04/22 05:09:46;;;;;;;2.70;1.63;;;21.80;40.30;;;;;;4994851;28;20037;-64
2022/04/22 05:12:11;;;;;;;3.05;1.80;;;21.80;40.30;;;;;;4996118;28;20034;-66
2022/04/22 05:14:37;;;;;;;3.20;1.80;;;21.80;40.30;;;;;;4993414;28;20647;-65
2022/04/22 05:17:03;;;;;;;2.92;1.95;;;21.80;40.30;;;;;;4995407;28;20026;-63
2022/04/22 05:19:29;;;;;;;2.80;1.65;;;21.80;40.20;;;;;;4995345;28;20089;-64
2022/04/22 05:21:55;;;;;;;2.80;1.80;;;21.80;40.30;;;;;;4994380;28;20053;-62
2022/04/22 05:24:21;;;;;;;3.38;1.80;;;21.80;40.30;;;;;;4994679;28;20026;-64
2022/04/22 05:26:47;;;;;;;2.67;1.80;;;21.80;40.30;;;;;;4994393;28;20104;-65
2022/04/22 05:34:42;;;;;;;3.97;1.70;;;21.80;40.30;;;;;;4994298;28;20458;-64
2022/04/22 05:37:08;;;;;;;2.65;1.70;;;21.80;40.30;;;;;;4996676;28;20101;-65
2022/04/22 05:39:34;;;;;;;2.58;1.70;;;21.70;40.20;;;;;;4995193;28;20664;-65
2022/04/22 05:42:01;;;;;;;2.97;1.90;;;21.70;40.20;;;;;;4990380;28;20041;-63
2022/04/22 05:44:28;;;;;;;2.83;1.70;;;21.70;40.30;;;;;;4994874;28;20128;-64
2022/04/22 05:46:54;;;;;;;3.05;1.77;;;21.70;40.20;;;;;;4988001;28;20070;-64
2022/04/22 05:49:19;;;;;;;2.30;1.50;;;21.70;40.30;;;;;;4994123;28;20140;-62
2022/04/22 05:51:45;;;;;;;2.88;1.58;;;21.70;40.30;;;;;;4990787;28;20227;-64
2022/04/22 05:54:11;;;;;;;2.30;1.50;;;21.70;40.30;;;;;;4987939;28;20038;-63
2022/04/22 05:56:36;;;;;;;2.28;1.60;;;21.70;40.30;;;;;;4992778;28;20533;-63
2022/04/22 05:59:03;;;;;;;3.10;1.90;;;21.70;40.30;;;;;;4995016;28;20033;-62
2022/04/22 06:01:29;;;;;;;2.45;1.50;;;21.70;40.20;;;;;;4989349;28;20042;-63
2022/04/22 06:03:55;;;;;;;2.60;1.77;;;21.70;40.30;;;;;;4994185;28;20359;-63
2022/04/22 06:06:20;;;;;;;2.10;1.50;;;21.70;40.30;;;;;;4992471;28;20041;-63
2022/04/22 06:11:31;;;;;;;2.80;1.80;;;21.70;40.80;;;;;;4992526;28;20040;-61
2022/04/22 06:13:56;;;;;;;2.47;1.63;;;21.70;40.20;;;;;;4993821;28;20105;-64
2022/04/22 06:16:22;;;;;;;2.60;1.50;;;21.70;40.20;;;;;;4990767;28;20105;-63
2022/04/22 06:18:48;;;;;;;2.63;1.50;;;21.70;40.30;;;;;;4995750;28;20644;-63
2022/04/22 06:21:13;;;;;;;2.08;1.38;;;21.60;40.20;;;;;;4992768;28;20058;-63
2022/04/22 06:23:39;;;;;;;2.45;1.42;;;21.60;40.70;;;;;;4991165;28;20088;-62
2022/04/22 06:26:04;;;;;;;2.47;1.60;;;21.60;40.20;;;;;;4997760;28;20088;-65
2022/04/22 06:28:30;;;;;;;2.30;1.45;;;21.60;40.20;;;;;;4999504;28;20053;-63
2022/04/22 06:30:56;;;;;;;2.33;1.45;;;21.60;40.20;;;;;;4997851;28;20088;-64
2022/04/22 06:33:22;;;;;;;2.45;1.58;;;21.60;40.20;;;;;;4998226;28;20025;-61
2022/04/22 06:35:48;;;;;;;2.70;1.50;;;21.60;40.20;;;;;;4999054;28;20028;-64
2022/04/22 06:38:18;;;;;;;1.90;1.38;;;21.60;40.20;;;;;;5001482;28;20073;-61
2022/04/22 06:46:18;;;;;;;2.30;1.35;;;21.60;40.20;;;;;;4991310;28;20550;-63
2022/04/22 06:48:44;;;;;;;2.30;1.40;;;21.60;40.20;;;;;;4999306;28;20033;-63
2022/04/22 06:51:11;;;;;;;2.45;1.60;;;21.60;40.20;;;;;;4996079;28;20061;-64
2022/04/22 06:53:37;;;;;;;2.30;1.50;;;21.60;40.20;;;;;;5000005;28;20045;-65
2022/04/22 06:56:06;;;;;;;2.50;1.40;;;21.60;40.20;;;;;;5000580;28;20034;-62
2022/04/22 06:58:37;;;;;;;2.40;1.50;;;21.50;40.10;;;;;;4997600;28;20029;-63
2022/04/22 07:01:03;;;;;;;2.03;1.30;;;21.60;40.20;;;;;;4989016;28;20042;-63
2022/04/22 07:03:29;;;;;;;2.30;1.42;;;21.60;40.20;;;;;;4995117;28;20054;-64
2022/04/22 07:05:55;;;;;;;2.75;1.60;;;21.50;40.10;;;;;;4985283;28;20132;-62
2022/04/22 07:08:21;;;;;;;2.20;1.30;;;21.50;40.20;;;;;;4990008;28;20037;-62
2022/04/22 07:10:49;;;;;;;1.85;1.40;;;21.50;40.20;;;;;;4990470;28;20033;-60
2022/04/22 07:13:16;;;;;;;1.98;1.10;;;21.50;40.20;;;;;;5014635;28;20174;-61
2022/04/22 07:15:46;;;;;;;2.05;1.42;;;21.50;40.20;;;;;;4991205;28;20402;-64
2022/04/22 07:18:13;;;;;;;1.75;1.20;;;21.50;40.20;;;;;;5001448;28;20340;-65
2022/04/22 07:20:39;;;;;;;2.10;1.33;;;21.50;40.30;;;;;;4996297;28;20387;-64
2022/04/22 07:23:05;;;;;;;2.10;1.42;;;21.50;40.30;;;;;;4996601;28;20030;-63
2022/04/22 07:25:31;;;;;;;2.80;1.67;;;21.50;40.30;;;;;;4994036;28;20061;-63
2022/04/22 07:27:58;;;;;;;2.40;1.50;;;21.50;40.30;;;;;;4996486;28;20116;-63
2022/04/22 07:30:25;;;;;;;2.45;1.40;;;21.50;40.40;;;;;;4994311;28;20096;-63
2022/04/22 07:32:51;;;;;;;1.98;1.40;;;21.50;40.40;;;;;;4996417;28;20036;-63
2022/04/22 07:35:19;;;;;;;2.10;1.40;;;21.50;40.40;;;;;;4996077;28;20033;-62
2022/04/22 07:37:53;;;;;;;1.80;1.20;;;21.50;40.40;;;;;;4991197;28;20092;-64
2022/04/22 07:40:20;;;;;;;2.22;1.30;;;21.50;40.40;;;;;;4995186;28;20041;-64
2022/04/22 07:48:20;;;;;;;2.60;1.60;;;21.50;40.60;;;;;;4994869;28;20037;-64
2022/04/22 07:50:47;;;;;;;2.10;1.30;;;21.50;40.60;;;;;;4986752;28;20037;-64
2022/04/22 07:53:14;;;;;;;1.83;1.20;;;21.50;40.60;;;;;;4987655;28;20092;-64
2022/04/22 07:55:39;;;;;;;2.05;1.38;;;21.50;40.70;;;;;;4995351;28;20026;-62
2022/04/22 07:58:06;;;;;;;2.00;1.30;;;21.50;40.70;;;;;;4996288;28;20077;-61
2022/04/22 08:00:32;;;;;;;1.88;1.20;;;21.50;40.70;;;;;;4992679;28;20402;-62
2022/04/22 08:02:58;;;;;;;2.40;1.40;;;21.50;40.70;;;;;;4989797;28;20041;-61
2022/04/22 08:05:23;;;;;;;2.55;1.58;;;21.50;40.70;;;;;;4989067;28;20713;-64
2022/04/22 08:07:49;;;;;;;2.55;1.40;;;21.50;40.70;;;;;;4991356;28;20037;-61
2022/04/22 08:10:15;;;;;;;2.17;1.35;;;21.50;40.70;;;;;;4994836;28;20025;-63
2022/04/22 08:12:41;;;;;;;2.17;1.35;;;21.50;40.70;;;;;;4995018;28;20026;-64
2022/04/22 08:15:07;;;;;;;1.80;1.30;;;21.50;40.70;;;;;;4990843;28;20026;-65
2022/04/22 08:17:37;;;;;;;1.85;1.40;;;21.50;40.80;;;;;;4996208;28;20506;-61
2022/04/22 08:20:07;;;;;;;1.95;1.38;;;21.50;40.70;;;;;;4995127;28;20670;-63
2022/04/22 08:22:32;;;;;;;;;;;21.50;40.80;;;;;;4991735;28;20069;-63
2022/04/22 08:24:58;;;;;;;1.38;1.02;;;21.50;40.80;;;;;;4992939;28;20409;-64
2022/04/22 08:27:26;;;;;;;2.33;1.40;;;21.50;40.80;;;;;;4994610;28;20038;-63
2022/04/22 08:29:52;;;;;;;2.45;1.67;;;21.50;40.80;;;;;;4982927;28;20030;-62
2022/04/22 08:32:17;;;;;;;2.17;1.38;;;21.50;40.90;;;;;;4993895;28;20034;-64
2022/04/22 08:34:44;;;;;;;1.90;1.42;;;21.50;40.90;;;;;;4985712;28;20022;-62
2022/04/22 08:37:10;;;;;;;2.67;1.60;;;21.50;41.00;;;;;;4994355;28;20021;-61
2022/04/22 08:39:37;;;;;;;3.28;1.45;;;21.50;40.90;;;;;;4996202;28;20418;-61
2022/04/22 08:42:03;;;;;;;2.00;1.30;;;21.50;40.90;;;;;;4992781;28;20069;-64
2022/04/22 08:44:30;;;;;;;2.38;1.30;;;21.50;40.80;;;;;;4989813;28;20041;-63
2022/04/22 08:49:58;;;;;;;1.80;1.27;;;21.50;40.90;;;;;;4996162;28;20441;-64
2022/04/22 08:52:31;;;;;;;2.15;1.30;;;21.50;40.90;;;;;;4995477;28;20095;-64
2022/04/22 08:54:58;;;;;;;1.60;1.02;;;21.50;40.90;;;;;;4993331;28;20030;-62
2022/04/22 08:57:24;;;;;;;1.88;1.10;;;21.50;40.90;;;;;;4993904;28;20068;-64
2022/04/22 08:59:49;;;;;;;1.70;1.20;;;21.50;40.90;;;;;;4990427;28;20029;-65
2022/04/22 09:02:19;;;;;;;1.95;1.33;;;21.50;40.90;;;;;;4992059;28;20041;-64
2022/04/22 09:04:46;;;;;;;1.55;1.08;;;21.50;40.90;;;;;;4994567;28;20049;-65
2022/04/22 09:07:18;;;;;;;2.00;1.17;;;21.50;41.00;;;;;;4991812;28;20036;-64
2022/04/22 09:09:50;;;;;;;2.40;1.20;;;21.50;41.00;;;;;;4985743;28;20617;-64
2022/04/22 09:12:19;;;;;;;2.42;1.30;;;21.50;41.00;;;;;;4992275;28;20387;-64
2022/04/22 09:14:47;;;;;;;2.00;1.35;;;21.50;41.00;;;;;;4982229;28;21579;-64
2022/04/22 09:17:21;;;;;;;1.88;1.45;;;21.50;41.00;;;;;;4990338;28;20026;-64
2022/04/22 09:19:46;;;;;;;2.08;1.40;;;21.50;41.00;;;;;;4994043;28;20044;-63
2022/04/22 09:22:18;;;;;;;2.33;1.50;;;21.50;41.00;;;;;;4989310;28;20026;-64
2022/04/22 09:24:53;;;;;;;1.83;1.20;;;21.50;41.10;;;;;;4992213;28;20121;-62
2022/04/22 09:27:19;;;;;;;2.05;1.38;;;21.50;41.10;;;;;;4994429;28;20121;-63
2022/04/22 09:29:55;;;;;;;2.03;1.20;;;21.50;41.10;;;;;;4990356;28;20114;-64
2022/04/22 09:32:28;;;;;;;1.95;1.30;;;21.50;41.00;;;;;;4990490;28;20033;-62
2022/04/22 09:35:05;;;;;;;1.83;1.25;;;21.50;41.00;;;;;;4992280;28;20034;-61
2022/04/22 09:42:59;;;;;;;1.60;1.10;;;21.50;41.00;;;;;;4987605;28;20037;-64
2022/04/22 09:45:38;;;;;;;1.55;1.13;;;21.50;41.00;;;;;;4987320;28;20034;-64
2022/04/22 09:48:13;;;;;;;2.40;1.30;;;21.50;41.00;;;;;;4991378;28;20037;-63
2022/04/22 09:50:47;;;;;;;1.88;1.30;;;21.50;41.00;;;;;;4985897;28;20254;-62
2022/04/22 09:53:14;;;;;;;2.50;1.30;;;21.50;41.00;;;;;;4991452;28;20467;-63
2022/04/22 09:55:47;;;;;;;2.58;1.30;;;21.50;41.00;;;;;;4986287;28;20036;-64
2022/04/22 09:58:20;;;;;;;2.35;1.40;;;21.50;41.00;;;;;;4995211;28;20326;-64
2022/04/22 10:00:48;;;;;;;2.20;1.40;;;21.50;41.00;;;;;;4983319;28;20060;-63
2022/04/22 10:03:15;;;;;;;2.00;1.30;;;21.50;41.00;;;;;;4982913;28;20373;-64
2022/04/22 10:05:41;;;;;;;2.42;1.60;;;21.50;41.00;;;;;;4988625;28;20026;-62
2022/04/22 10:08:10;;;;;;;1.65;1.10;;;21.50;41.00;;;;;;4988907;28;20033;-63
2022/04/22 10:10:39;;;;;;;1.95;1.30;;;21.50;41.00;;;;;;4987635;28;20080;-64
2022/04/22 10:13:07;;;;;;;2.05;1.30;;;21.50;41.00;;;;;;4977733;28;20030;-63
2022/04/22 10:15:37;;;;;;;2.60;1.40;;;21.50;41.10;;;;;;4986880;28;20052;-64
2022/04/22 10:18:04;;;;;;;1.95;1.40;;;21.50;41.00;;;;;;4990261;28;20041;-63
2022/04/22 10:20:32;;;;;;;2.15;1.38;;;21.50;41.10;;;;;;4990988;28;20358;-62
2022/04/22 10:22:59;;;;;;;1.90;1.30;;;21.50;41.00;;;;;;5023323;28;20026;-62
2022/04/22 10:25:29;;;;;;;2.70;1.42;;;21.50;41.00;;;;;;4990555;28;20457;-63
2022/04/22 10:27:57;;;;;;;2.30;1.33;;;21.50;41.10;;;;;;4992758;28;20037;-62
2022/04/22 10:30:24;;;;;;;2.25;1.40;;;21.50;41.00;;;;;;4989649;28;20124;-63
2022/04/22 10:32:50;;;;;;;2.20;1.27;;;21.50;41.10;;;;;;4995779;28;20061;-63
2022/04/22 10:35:16;;;;;;;2.00;1.30;;;21.50;41.10;;;;;;4993669;28;20037;-64
2022/04/22 10:37:43;;;;;;;2.33;1.35;;;21.50;41.10;;;;;;4990546;28;20025;-63
2022/04/22 10:40:26;;;;;;;2.20;1.27;;;21.50;41.00;;;;;;4991510;28;20026;-63
2022/04/22 10:42:55;;;;;;;1.45;1.20;;;21.50;41.00;;;;;;4988514;28;20133;-63
2022/04/22 10:48:21;;;;;;;1.77;1.30;;;21.50;41.00;;;;;;4992428;28;20056;-62
2022/04/22 10:51:01;;;;;;;2.33;1.42;;;21.50;41.10;;;;;;4987770;28;20033;-63
2022/04/22 10:53:28;;;;;;;2.03;1.25;;;21.50;41.00;;;;;;4984867;28;20113;-65
2022/04/22 10:56:14;;;;;;;2.28;1.20;;;21.50;41.00;;;;;;4990157;28;20049;-62
2022/04/22 10:58:39;;;;;;;1.80;1.17;;;21.50;41.00;;;;;;4988668;28;20113;-64
2022/04/22 11:01:05;;;;;;;1.77;1.20;;;21.50;41.20;;;;;;4981518;28;20524;-64
2022/04/22 11:03:36;;;;;;;2.08;1.38;;;21.50;41.30;;;;;;4990100;28;20033;-62
2022/04/22 11:06:06;;;;;;;2.08;1.25;;;21.50;41.30;;;;;;4983254;28;20153;-64
2022/04/22 11:08:38;;;;;;;2.78;1.35;;;21.50;41.30;;;;;;4988900;28;20096;-64
2022/04/22 11:11:15;;;;;;;2.75;1.42;;;21.50;41.30;;;;;;4992193;28;20073;-64
2022/04/22 11:13:41;;;;;;;1.95;1.30;;;21.50;41.50;;;;;;4991694;28;20645;-62
2022/04/22 11:16:14;;;;;;;3.42;1.40;;;21.50;41.40;;;;;;4990924;28;20125;-63
2022/04/22 11:18:45;;;;;;;2.63;1.42;;;21.50;41.40;;;;;;4991736;28;20053;-64
2022/04/22 11:21:18;;;;;;;2.72;1.40;;;21.50;41.40;;;;;;4992449;28;20061;-64
2022/04/22 11:23:44;;;;;;;1.88;1.10;;;21.50;41.50;;;;;;4995211;28;20069;-64
2022/04/22 11:26:16;;;;;;;2.20;1.40;;;21.50;41.50;;;;;;4994460;28;20042;-62
2022/04/22 11:28:44;;;;;;;3.17;1.75;;;21.60;41.50;;;;;;4995380;28;20026;-64
2022/04/22 11:31:11;;;;;;;2.45;1.30;;;21.60;41.60;;;;;;4990345;28;20046;-63
2022/04/22 11:33:52;;;;;;;2.28;1.20;;;21.60;41.60;;;;;;4995512;28;20026;-65
2022/04/22 11:36:19;;;;;;;2.15;1.20;;;21.60;41.60;;;;;;4993088;28;20797;-63
2022/04/22 11:38:53;;;;;;;2.15;1.30;;;21.60;41.60;;;;;;4990190;28;20026;-64
2022/04/22 11:41:19;;;;;;;2.38;1.30;;;21.60;42.10;;;;;;4993431;28;20037;-64
2022/04/22 11:43:46;;;;;;;2.30;1.38;;;21.60;41.60;;;;;;4994121;28;21008;-64
2022/04/22 11:46:13;;;;;;;2.55;1.40;;;21.60;41.60;;;;;;4990097;28;20034;-64
2022/04/22 11:48:47;;;;;;;2.00;1.48;;;21.60;41.60;;;;;;4991586;28;20033;-64
2022/04/22 11:51:14;;;;;;;2.25;1.30;;;21.60;41.60;;;;;;4991235;28;20640;-64
2022/04/22 11:53:52;;;;;;;2.05;1.27;;;21.60;41.60;;;;;;4993510;28;20038;-63
2022/04/22 11:56:23;;;;;;;2.42;1.40;;;21.60;41.60;;;;;;4992214;28;20066;-64
2022/04/22 11:58:56;;;;;;;2.08;1.20;;;21.70;41.60;;;;;;4990723;28;20502;-63
2022/04/22 12:07:02;;;;;;;1.88;1.30;;;21.70;41.60;;;;;;4983656;28;20104;-64
2022/04/22 12:09:28;;;;;;;2.28;1.38;;;21.70;41.60;;;;;;4990968;28;20068;-65
2022/04/22 12:11:57;;;;;;;1.95;1.20;;;21.70;41.60;;;;;;4992340;28;20065;-65
2022/04/22 12:14:25;;;;;;;2.00;1.38;;;21.70;41.60;;;;;;4989197;28;20026;-64
2022/04/22 12:17:02;;;;;;;2.00;1.30;;;21.70;41.60;;;;;;4991846;28;20081;-63
2022/04/22 12:19:28;;;;;;;2.38;1.20;;;21.70;41.60;;;;;;4992005;28;20117;-64
2022/04/22 12:21:55;;;;;;;2.08;1.30;;;21.70;41.50;;;;;;4991622;28;20025;-64
2022/04/22 12:24:23;;;;;;;2.10;1.40;;;21.70;41.50;;;;;;4988371;28;20026;-64
2022/04/22 12:26:51;;;;;;;1.85;1.30;;;21.70;41.50;;;;;;4990054;28;20105;-63
2022/04/22 12:29:25;;;;;;;2.55;1.10;;;21.70;41.50;;;;;;4992711;28;20148;-65
2022/04/22 12:31:53;;;;;;;2.30;1.30;;;21.80;41.50;;;;;;4987787;28;20120;-63
2022/04/22 12:34:45;;;;;;;2.20;1.40;;;21.70;41.40;;;;;;4990288;28;20124;-65
2022/04/22 12:37:15;;;;;;;2.13;1.30;;;21.80;41.50;;;;;;4991276;28;20042;-64
2022/04/22 12:39:43;;;;;;;2.10;1.20;;;21.80;41.40;;;;;;4993289;28;20064;-64
2022/04/22 12:42:15;;;;;;;2.88;1.33;;;21.80;41.40;;;;;;4990126;28;20129;-65
2022/04/22 12:52:07;;;;;;;2.00;1.30;;;21.80;41.40;;;;;;4986099;28;20084;-64
2022/04/22 12:52:56;;;;;;;1.80;1.30;;;21.80;41.30;;;;;;4994418;28;20578;-65
2022/04/22 12:55:22;;;;;;;2.10;1.20;;;21.80;41.30;;;;;;4991973;28;20026;-63
2022/04/22 12:58:00;;;;;;;1.73;1.25;;;21.80;41.30;;;;;;4993811;28;20113;-64
2022/04/22 13:00:26;;;;;;;2.35;1.30;;;21.80;41.30;;;;;;4987941;28;21465;-62
2022/04/22 13:02:52;;;;;;;1.65;1.17;;;21.80;41.30;;;;;;4992574;28;20034;-63
2022/04/22 13:05:19;;;;;;;2.95;1.20;;;21.80;41.30;;;;;;4992670;28;20155;-65
2022/04/22 13:07:47;;;;;;;1.92;1.23;;;21.80;41.30;;;;;;4991568;28;20049;-65
2022/04/22 13:10:14;;;;;;;2.10;1.30;;;21.80;41.30;;;;;;4992814;28;20045;-65
2022/04/22 13:12:40;;;;;;;2.00;1.30;;;21.80;41.30;;;;;;4993088;28;20038;-65
2022/04/22 13:15:12;;;;;;;2.40;1.23;;;21.80;41.90;;;;;;4988018;28;20041;-65
2022/04/22 13:17:43;;;;;;;2.63;1.20;;;21.80;41.30;;;;;;4992705;28;21307;-63
2022/04/22 13:20:10;;;;;;;2.05;1.10;;;21.80;41.30;;;;;;4994208;28;20562;-65
2022/04/22 13:22:35;;;;;;;2.00;1.20;;;21.80;41.40;;;;;;4995100;28;20120;-64
2022/04/22 13:25:02;;;;;;;1.50;1.10;;;21.80;41.40;;;;;;4991719;28;20072;-63
2022/04/22 13:27:27;;;;;;;2.05;1.40;;;21.80;41.50;;;;;;4993706;28;20475;-63
2022/04/22 13:29:53;;;;;;;1.90;1.25;;;21.80;41.50;;;;;;4991918;28;20030;-64
2022/04/22 13:32:18;;;;;;;1.33;1.02;;;21.80;41.60;;;;;;4989487;28;20034;-63
2022/04/22 13:34:44;;;;;;;1.95;1.30;;;21.80;41.60;;;;;;4991225;28;20030;-64
2022/04/22 13:37:11;;;;;;;1.75;1.10;;;21.80;41.60;;;;;;5009499;28;20033;-62
2022/04/22 13:39:37;;;;;;;2.10;1.10;;;21.80;41.70;;;;;;4987958;28;20071;-62
2022/04/22 13:42:03;;;;;;;1.55;1.10;;;21.80;41.80;;;;;;4991005;28;20116;-62
2022/04/22 13:52:42;;;;;;;1.88;1.10;;;21.90;42.10;;;;;;4994702;28;20064;-62
2022/04/22 13:55:08;;;;;;;1.73;1.10;;;21.90;42.00;;;;;;4992570;28;20085;-64
2022/04/22 13:57:34;;;;;;;2.38;1.10;;;21.90;42.00;;;;;;4991347;28;20121;-64
2022/04/22 14:00:00;;;;;;;3.78;1.30;;;21.90;41.90;;;;;;4988688;28;20136;-64
2022/04/22 14:02:25;;;;;;;3.75;1.20;;;21.90;41.90;;;;;;4986993;28;20363;-63
2022/04/22 14:04:51;;;;;;;3.35;1.15;;;21.90;41.80;;;;;;4991034;28;20070;-63
2022/04/22 14:07:17;;;;;;;3.58;1.52;;;21.90;41.80;;;;;;4994074;28;20096;-62